Flugplatz Neuburg-Egweil

Für EDNJ sind keine METAR/TAF Berichte vorhanden.
Es werden die Flugwettermeldungen vom Flugplatz Neuburg Airport in 7 km Entfernung angezeigt.

Bericht für ETSN

vom 27.09. um 00:20 UTC

Wind 10 kt aus 230°

Sichtweite 10 km oder mehr

gering bewölkt in 1500 ft

aufgebrochene Bewölkung in 2600 ft

Temperatur 7.0°C

Taupunkt 5.0°C

Luftfeuchtigkeit 87%

Luftdruck 1002 hPa

ETSN 270020Z 23010KT 9999 FEW015 BKN026 07/05 Q1002 BLU
Keine Prognose (TAF) verfügbar.
Impressum